createdAt,value
2022-09-24T00:02:21.321Z,96733.94
2022-09-24T00:04:49.666Z,96735.53
2022-09-24T00:07:17.903Z,96727.34
2022-09-24T00:09:48.335Z,96726.56
2022-09-24T00:12:17.166Z,96721.56
2022-09-24T00:14:45.737Z,96715.94
2022-09-24T00:17:13.951Z,96715.13
2022-09-24T00:19:44.447Z,96727.34
2022-09-24T00:22:12.740Z,96716.91
2022-09-24T00:24:58.587Z,96726.88
2022-09-24T00:27:29.060Z,96727.03
2022-09-24T00:29:57.791Z,96720.75
2022-09-24T00:32:26.021Z,96709.84
2022-09-24T00:34:54.383Z,96719.81
2022-09-24T00:37:22.664Z,96711.31
2022-09-24T00:39:50.962Z,96706.66
2022-09-24T00:42:20.798Z,96709.19
2022-09-24T00:44:57.756Z,96707.28
2022-09-24T00:47:41.886Z,96703.41
2022-09-24T00:50:18.377Z,96706.78
2022-09-24T00:52:53.138Z,96708.09
2022-09-24T00:55:23.791Z,96710.34
2022-09-24T00:57:58.188Z,96709.88
2022-09-24T01:00:28.415Z,96707.94
2022-09-24T01:03:02.983Z,96697.66
2022-09-24T01:05:31.966Z,96692.06
2022-09-24T01:08:00.242Z,96683.38
2022-09-24T01:10:51.760Z,96684.63
2022-09-24T01:13:43.737Z,96673.91
2022-09-24T01:16:22.911Z,96669.41
2022-09-24T01:19:00.815Z,96668.00
2022-09-24T01:21:39.713Z,96662.06
2022-09-24T01:24:53.110Z,96657.06
2022-09-24T01:27:31.895Z,96651.16
2022-09-24T01:30:06.616Z,96656.13
2022-09-24T01:32:39.961Z,96647.63
2022-09-24T01:35:18.192Z,96645.25
2022-09-24T01:37:53.051Z,96635.28
2022-09-24T01:40:27.077Z,96630.94
2022-09-24T01:42:58.839Z,96630.63
2022-09-24T01:45:32.156Z,96626.28
2022-09-24T01:48:01.891Z,96623.06
2022-09-24T01:50:36.167Z,96619.56
2022-09-24T01:53:11.461Z,96623.06
2022-09-24T01:55:49.689Z,96618.75
2022-09-24T01:58:27.926Z,96611.22
2022-09-24T02:01:06.320Z,96610.72
2022-09-24T02:03:41.500Z,96608.16
2022-09-24T02:06:16.145Z,96598.88
2022-09-24T02:08:48.504Z,96605.28
2022-09-24T02:11:20.214Z,96603.84
2022-09-24T02:13:56.455Z,96598.88
2022-09-24T02:16:31.923Z,96596.31
2022-09-24T02:19:06.932Z,96598.38
2022-09-24T02:21:40.702Z,96591.81
2022-09-24T02:24:15.903Z,96585.53
2022-09-24T02:26:44.996Z,96588.88
2022-09-24T02:29:14.214Z,96583.44
2022-09-24T02:31:48.955Z,96583.94
2022-09-24T02:34:23.661Z,96583.00
2022-09-24T02:36:56.097Z,96575.13
2022-09-24T02:39:24.383Z,96589.88
2022-09-24T02:41:54.764Z,96600.66
2022-09-24T02:44:24.358Z,96598.38
2022-09-24T02:46:54.076Z,96596.94
2022-09-24T02:49:22.445Z,96597.41
2022-09-24T02:51:50.784Z,96591.84
2022-09-24T02:54:19.224Z,96591.69
2022-09-24T02:56:47.840Z,96590.09
2022-09-24T02:59:16.473Z,96597.47
2022-09-24T03:01:44.936Z,96593.13
2022-09-24T03:04:17.029Z,96582.25
2022-09-24T03:06:45.510Z,96582.41
2022-09-24T03:09:14.213Z,96575.66
2022-09-24T03:11:42.578Z,96571.66
2022-09-24T03:14:10.993Z,96576.44
2022-09-24T03:16:39.265Z,96574.03
2022-09-24T03:19:08.195Z,96577.13
2022-09-24T03:21:37.935Z,96574.53
2022-09-24T03:24:06.735Z,96591.38
2022-09-24T03:26:35.018Z,96597.78
2022-09-24T03:29:05.387Z,96589.59
2022-09-24T03:31:32.681Z,96582.88
2022-09-24T03:34:01.064Z,96575.00
2022-09-24T03:36:29.280Z,96586.06
2022-09-24T03:38:59.276Z,96587.22
2022-09-24T03:41:28.822Z,96583.69
2022-09-24T03:43:57.550Z,96576.00
2022-09-24T03:46:30.185Z,96583.53
2022-09-24T03:49:00.726Z,96583.34
2022-09-24T03:51:29.610Z,96577.28
2022-09-24T03:53:59.241Z,96566.53
2022-09-24T03:56:27.515Z,96569.22
2022-09-24T03:58:56.181Z,96568.91
2022-09-24T04:01:24.626Z,96575.34
2022-09-24T04:03:54.145Z,96580.31
2022-09-24T04:06:25.985Z,96577.59
2022-09-24T04:08:55.717Z,96580.78
2022-09-24T04:11:25.882Z,96582.06
2022-09-24T04:13:54.535Z,96587.50
2022-09-24T04:16:23.661Z,96579.31
2022-09-24T04:18:52.153Z,96572.75
2022-09-24T04:21:21.415Z,96559.25
2022-09-24T04:23:49.668Z,96559.41
2022-09-24T04:26:18.353Z,96552.69
2022-09-24T04:28:49.829Z,96560.53
2022-09-24T04:31:18.144Z,96563.72
2022-09-24T04:33:46.946Z,96562.75
2022-09-24T04:36:15.332Z,96569.66
2022-09-24T04:38:43.911Z,96566.31
2022-09-24T04:41:12.518Z,96568.25
2022-09-24T04:43:40.911Z,96556.84
2022-09-24T04:46:11.039Z,96551.59
2022-09-24T04:48:40.135Z,96550.31
2022-09-24T04:51:10.469Z,96551.91
2022-09-24T04:53:39.168Z,96548.25
2022-09-24T04:56:11.292Z,96550.78
2022-09-24T04:58:40.263Z,96554.59
2022-09-24T05:01:10.737Z,96563.91
2022-09-24T05:03:39.631Z,96560.97
2022-09-24T05:06:08.053Z,96561.50
2022-09-24T05:08:36.355Z,96559.72
2022-09-24T05:11:04.633Z,96560.56
2022-09-24T05:13:32.930Z,96556.88
2022-09-24T05:16:02.112Z,96557.72
2022-09-24T05:18:31.828Z,96545.03
2022-09-24T05:21:00.495Z,96533.19
2022-09-24T05:23:28.806Z,96540.72
2022-09-24T05:26:14.355Z,96548.28
2022-09-24T05:28:42.872Z,96548.09
2022-09-24T05:31:11.755Z,96538.59
2022-09-24T05:33:41.415Z,96554.16
2022-09-24T05:36:09.748Z,96546.44
2022-09-24T05:38:41.543Z,96534.41
2022-09-24T05:41:10.830Z,96548.66
2022-09-24T05:43:39.208Z,96546.41
2022-09-24T05:46:08.112Z,96544.97
2022-09-24T05:48:36.469Z,96552.50
2022-09-24T05:51:07.004Z,96550.09
2022-09-24T05:53:35.585Z,96544.69
2022-09-24T05:56:03.927Z,96535.53
2022-09-24T05:58:32.690Z,96536.50
2022-09-24T06:01:01.729Z,96531.97
2022-09-24T06:03:31.791Z,96550.06
2022-09-24T06:06:02.140Z,96540.06
2022-09-24T06:08:33.472Z,96547.88
2022-09-24T06:11:03.549Z,96560.06
2022-09-24T06:13:33.645Z,96565.50
2022-09-24T06:16:03.096Z,96566.75
2022-09-24T06:18:31.625Z,96562.41
2022-09-24T06:21:03.894Z,96562.34
2022-09-24T06:23:33.725Z,96568.25
2022-09-24T06:26:02.781Z,96566.53
2022-09-24T06:28:31.149Z,96568.22
2022-09-24T06:31:01.885Z,96553.09
2022-09-24T06:33:30.799Z,96555.56
2022-09-24T06:36:03.028Z,96565.16
2022-09-24T06:38:33.285Z,96567.69
2022-09-24T06:41:05.140Z,96567.84
2022-09-24T06:43:34.532Z,96569.22
2022-09-24T06:46:04.957Z,96569.38
2022-09-24T06:48:33.923Z,96566.78
2022-09-24T06:51:02.269Z,96573.84
2022-09-24T06:53:30.808Z,96583.22
2022-09-24T06:56:00.667Z,96572.91
2022-09-24T06:58:29.181Z,96574.84
2022-09-24T07:01:01.699Z,96567.44
2022-09-24T07:03:34.969Z,96573.31
2022-09-24T07:06:06.114Z,96571.94
2022-09-24T07:08:35.708Z,96571.53
2022-09-24T07:11:05.691Z,96579.56
2022-09-24T07:13:34.018Z,96586.53
2022-09-24T07:16:03.180Z,96584.78
2022-09-24T07:18:31.524Z,96582.88
2022-09-24T07:20:59.872Z,96577.63
2022-09-24T07:23:28.143Z,96576.94
2022-09-24T07:25:58.312Z,96571.81
2022-09-24T07:28:27.937Z,96570.34
2022-09-24T07:31:00.901Z,96578.34
2022-09-24T07:33:32.021Z,96574.25
2022-09-24T07:36:00.362Z,96581.09
2022-09-24T07:38:28.643Z,96574.13
2022-09-24T07:40:59.497Z,96584.19
2022-09-24T07:43:29.475Z,96584.03
2022-09-24T07:45:58.269Z,96581.94
2022-09-24T07:48:26.846Z,96586.56
2022-09-24T07:50:55.944Z,96585.91
2022-09-24T07:53:24.677Z,96589.75
2022-09-24T07:55:52.964Z,96596.50
2022-09-24T07:58:21.887Z,96595.47
2022-09-24T08:00:51.599Z,96599.72
2022-09-24T08:03:20.546Z,96605.72
2022-09-24T08:05:49.288Z,96606.44
2022-09-24T08:08:17.578Z,96605.34
2022-09-24T08:10:46.185Z,96609.44
2022-09-24T08:13:14.538Z,96600.50
2022-09-24T08:15:43.147Z,96601.53
2022-09-24T08:18:12.955Z,96594.09
2022-09-24T08:20:41.223Z,96593.97
2022-09-24T08:23:11.254Z,96597.47
2022-09-24T08:25:39.696Z,96612.78
2022-09-24T08:28:11.278Z,96602.53
2022-09-24T08:30:40.975Z,96611.03
2022-09-24T08:33:09.234Z,96599.53
2022-09-24T08:35:40.732Z,96605.66
2022-09-24T08:38:10.056Z,96608.91
2022-09-24T08:40:45.786Z,96615.56
2022-09-24T08:43:44.462Z,96610.31
2022-09-24T08:46:38.659Z,96605.53
2022-09-24T08:49:12.560Z,96605.88
2022-09-24T08:51:58.944Z,96608.09
2022-09-24T08:54:31.987Z,96613.59
2022-09-24T08:57:06.841Z,96617.94
2022-09-24T08:59:37.728Z,96618.66
2022-09-24T09:02:32.179Z,96616.53
2022-09-24T09:05:14.160Z,96614.94
2022-09-24T09:07:55.666Z,96631.88
2022-09-24T09:10:29.234Z,96630.53
2022-09-24T09:13:06.241Z,96628.50
2022-09-24T09:15:41.646Z,96630.16
2022-09-24T09:18:19.705Z,96628.00
2022-09-24T09:20:50.933Z,96633.84
2022-09-24T09:23:22.790Z,96634.72
2022-09-24T09:25:57.204Z,96643.13
2022-09-24T09:28:28.507Z,96644.78
2022-09-24T09:31:11.607Z,96639.53
2022-09-24T09:34:03.789Z,96642.28
2022-09-24T09:36:54.317Z,96642.91
2022-09-24T09:39:44.220Z,96644.41
2022-09-24T09:42:33.062Z,96648.72
2022-09-24T09:45:03.428Z,96648.00
2022-09-24T09:47:44.350Z,96648.28
2022-09-24T09:50:27.939Z,96644.19
2022-09-24T09:52:56.971Z,96641.34
2022-09-24T09:55:31.231Z,96643.75
2022-09-24T09:58:17.621Z,96638.59
2022-09-24T10:00:48.358Z,96651.34
2022-09-24T10:03:27.070Z,96647.88
2022-09-24T10:06:01.693Z,96645.09
2022-09-24T10:08:30.778Z,96655.28
2022-09-24T10:11:03.471Z,96651.09
2022-09-24T10:13:32.598Z,96653.59
2022-09-24T10:16:05.141Z,96643.63
2022-09-24T10:18:47.609Z,96648.81
2022-09-24T10:21:32.455Z,96638.81
2022-09-24T10:24:04.254Z,96641.75
2022-09-24T10:26:44.548Z,96641.09
2022-09-24T10:29:37.200Z,96651.09
2022-09-24T10:32:14.506Z,96650.97
2022-09-24T10:34:43.088Z,96652.16
2022-09-24T10:37:18.939Z,96649.69
2022-09-24T10:39:57.606Z,96655.41
2022-09-24T10:42:29.971Z,96650.28
2022-09-24T10:45:03.549Z,96648.59
2022-09-24T10:47:42.322Z,96648.97
2022-09-24T10:50:32.514Z,96643.81
2022-09-24T10:53:08.982Z,96648.63
2022-09-24T10:55:47.348Z,96647.69
2022-09-24T10:58:44.313Z,96642.25
2022-09-24T11:01:20.381Z,96639.13
2022-09-24T11:04:09.488Z,96629.41
2022-09-24T11:06:55.518Z,96632.28
2022-09-24T11:09:36.286Z,96636.81
2022-09-24T11:12:20.574Z,96639.16
2022-09-24T11:15:11.937Z,96635.03
2022-09-24T11:17:55.084Z,96638.47
2022-09-24T11:20:34.836Z,96634.94
2022-09-24T11:23:32.275Z,96639.56
2022-09-24T11:26:15.862Z,96630.00
2022-09-24T11:29:12.342Z,96622.56
2022-09-24T11:31:49.837Z,96624.22
2022-09-24T11:34:47.110Z,96627.09
2022-09-24T11:37:36.127Z,96626.91
2022-09-24T11:40:24.797Z,96619.72
2022-09-24T11:43:13.480Z,96621.06
2022-09-24T11:45:59.065Z,96616.81
2022-09-24T11:48:55.583Z,96611.75
2022-09-24T11:51:37.967Z,96612.09
2022-09-24T11:54:20.587Z,96619.53
2022-09-24T11:56:57.557Z,96619.53
2022-09-24T11:59:43.164Z,96608.66
2022-09-24T12:02:21.401Z,96619.00
2022-09-24T12:05:01.219Z,96615.56
2022-09-24T12:07:37.849Z,96612.66
2022-09-24T12:10:26.074Z,96613.97
2022-09-24T12:13:02.621Z,96609.00
2022-09-24T12:15:44.118Z,96606.19
2022-09-24T12:18:20.070Z,96604.06
2022-09-24T12:20:54.184Z,96600.06
2022-09-24T12:23:29.846Z,96600.59
2022-09-24T12:26:01.873Z,96604.41
2022-09-24T12:29:00.717Z,96615.56
2022-09-24T12:31:57.145Z,96614.69
2022-09-24T12:34:38.411Z,96611.94
2022-09-24T12:37:14.150Z,96616.25
2022-09-24T12:39:53.779Z,96617.06
2022-09-24T12:42:24.500Z,96615.63
2022-09-24T12:44:59.491Z,96621.94
2022-09-24T12:47:33.232Z,96612.19
2022-09-24T12:50:06.314Z,96619.22
2022-09-24T12:52:42.405Z,96607.94
2022-09-24T12:55:23.204Z,96613.25
2022-09-24T12:57:56.121Z,96604.75
2022-09-24T13:00:43.873Z,96604.22
2022-09-24T13:03:34.276Z,96597.53
2022-09-24T13:06:03.334Z,96599.47
2022-09-24T13:08:41.277Z,96591.69
2022-09-24T13:11:30.506Z,96592.72
2022-09-24T13:14:21.655Z,96592.84
2022-09-24T13:16:53.334Z,96588.41
2022-09-24T13:19:35.125Z,96592.59
2022-09-24T13:22:04.544Z,96586.72
2022-09-24T13:24:47.877Z,96586.19
2022-09-24T13:27:25.227Z,96595.06
2022-09-24T13:30:17.646Z,96605.28
2022-09-24T13:32:55.632Z,96598.13
2022-09-24T13:35:29.202Z,96595.53
2022-09-24T13:38:08.893Z,96593.22
2022-09-24T13:40:44.462Z,96594.03
2022-09-24T13:43:19.081Z,96597.84
2022-09-24T13:45:49.314Z,96600.38
2022-09-24T13:48:31.398Z,96604.13
2022-09-24T13:51:02.171Z,96603.41
2022-09-24T13:53:38.628Z,96603.41
2022-09-24T13:56:15.808Z,96608.13
2022-09-24T13:58:44.295Z,96604.41
2022-09-24T14:01:18.441Z,96596.50
2022-09-24T14:03:55.578Z,96592.00
2022-09-24T14:06:35.646Z,96576.94
2022-09-24T14:09:15.241Z,96582.50
2022-09-24T14:11:52.298Z,96587.91
2022-09-24T14:14:24.731Z,96583.28
2022-09-24T14:16:55.066Z,96577.16
2022-09-24T14:19:24.261Z,96582.78
2022-09-24T14:21:57.726Z,96580.47
2022-09-24T14:24:31.961Z,96581.88
2022-09-24T14:27:06.805Z,96588.53
2022-09-24T14:29:48.416Z,96591.88
2022-09-24T14:32:25.845Z,96591.50
2022-09-24T14:34:56.743Z,96591.84
2022-09-24T14:37:31.294Z,96585.00
2022-09-24T14:40:05.572Z,96578.13
2022-09-24T14:42:43.946Z,96568.28
2022-09-24T14:45:21.586Z,96569.53
2022-09-24T14:48:00.436Z,96564.75
2022-09-24T14:50:38.027Z,96557.41
2022-09-24T14:53:21.381Z,96549.53
2022-09-24T14:55:50.747Z,96547.97
2022-09-24T14:58:37.351Z,96553.34
2022-09-24T15:01:15.940Z,96555.38
2022-09-24T15:03:49.932Z,96559.97
2022-09-24T15:06:25.794Z,96567.63
2022-09-24T15:09:00.883Z,96555.81
2022-09-24T15:11:34.211Z,96557.78
2022-09-24T15:14:15.688Z,96555.22
2022-09-24T15:16:47.035Z,96560.16
2022-09-24T15:19:20.202Z,96556.44
2022-09-24T15:21:49.811Z,96570.38
2022-09-24T15:24:19.896Z,96568.06
2022-09-24T15:26:59.940Z,96572.03
2022-09-24T15:29:29.750Z,96572.78
2022-09-24T15:32:00.275Z,96574.69
2022-09-24T15:34:29.495Z,96571.94
2022-09-24T15:37:00.570Z,96565.75
2022-09-24T15:39:31.935Z,96573.47
2022-09-24T15:42:00.164Z,96563.53
2022-09-24T15:44:33.889Z,96565.84
2022-09-24T15:47:02.623Z,96563.53
2022-09-24T15:49:31.415Z,96563.47
2022-09-24T15:52:06.958Z,96563.53
2022-09-24T15:54:35.732Z,96565.84
2022-09-24T15:57:04.409Z,96562.47
2022-09-24T15:59:34.221Z,96558.06
2022-09-24T16:02:12.597Z,96563.19
2022-09-24T16:04:40.870Z,96563.34
2022-09-24T16:07:09.266Z,96556.09
2022-09-24T16:09:37.727Z,96559.19
2022-09-24T16:12:06.666Z,96567.25
2022-09-24T16:14:36.550Z,96567.59
2022-09-24T16:17:04.981Z,96559.81
2022-09-24T16:19:33.735Z,96573.53
2022-09-24T16:22:02.201Z,96570.78
2022-09-24T16:24:34.352Z,96564.84
2022-09-24T16:27:03.163Z,96568.50
2022-09-24T16:29:31.826Z,96571.50
2022-09-24T16:32:02.216Z,96566.13
2022-09-24T16:34:31.263Z,96565.66
2022-09-24T16:36:59.771Z,96563.25
2022-09-24T16:39:28.211Z,96565.91
2022-09-24T16:41:56.942Z,96569.34
2022-09-24T16:44:25.276Z,96565.66
2022-09-24T16:46:54.009Z,96562.78
2022-09-24T16:49:25.371Z,96571.19
2022-09-24T16:51:53.787Z,96566.75
2022-09-24T16:54:22.735Z,96568.97
2022-09-24T16:56:52.191Z,96564.97
2022-09-24T16:59:20.937Z,96567.19
2022-09-24T17:01:49.632Z,96572.66
2022-09-24T17:04:18.141Z,96580.44
2022-09-24T17:06:47.973Z,96579.28
2022-09-24T17:09:33.987Z,96581.69
2022-09-24T17:12:03.634Z,96581.59
2022-09-24T17:14:32.122Z,96584.25
2022-09-24T17:17:00.757Z,96581.00
2022-09-24T17:19:29.448Z,96584.09
2022-09-24T17:21:59.294Z,96584.81
2022-09-24T17:24:27.790Z,96581.59
2022-09-24T17:26:56.614Z,96583.13
2022-09-24T17:29:30.353Z,96588.59
2022-09-24T17:31:59.639Z,96583.13
2022-09-24T17:34:28.699Z,96589.72
2022-09-24T17:36:59.793Z,96588.47
2022-09-24T17:39:30.722Z,96592.03
2022-09-24T17:41:59.171Z,96593.97
2022-09-24T17:44:27.605Z,96600.59
2022-09-24T17:46:56.464Z,96601.41
2022-09-24T17:49:24.945Z,96596.69
2022-09-24T17:51:53.353Z,96601.75
2022-09-24T17:54:24.268Z,96598.56
2022-09-24T17:56:53.825Z,96600.84
2022-09-24T17:59:26.482Z,96603.25
2022-09-24T18:01:55.832Z,96601.22
2022-09-24T18:04:25.823Z,96599.84
2022-09-24T18:06:54.314Z,96600.28
2022-09-24T18:09:24.128Z,96599.06
2022-09-24T18:11:54.097Z,96595.06
2022-09-24T18:14:23.993Z,96597.44
2022-09-24T18:16:53.376Z,96597.34
2022-09-24T18:19:23.130Z,96604.53
2022-09-24T18:21:51.473Z,96604.53
2022-09-24T18:24:20.055Z,96594.47
2022-09-24T18:26:51.857Z,96609.88
2022-09-24T18:29:21.277Z,96591.28
2022-09-24T18:31:51.462Z,96592.41
2022-09-24T18:34:20.058Z,96593.59
2022-09-24T18:36:50.651Z,96597.59
2022-09-24T18:39:24.815Z,96601.72
2022-09-24T18:41:55.355Z,96600.91
2022-09-24T18:44:23.866Z,96605.47
2022-09-24T18:46:52.656Z,96609.59
2022-09-24T18:49:21.293Z,96601.28
2022-09-24T18:51:52.723Z,96609.06
2022-09-24T18:54:21.413Z,96603.66
2022-09-24T18:56:49.902Z,96612.25
2022-09-24T18:59:21.746Z,96609.94
2022-09-24T19:01:51.702Z,96616.00
2022-09-24T19:04:20.627Z,96613.94
2022-09-24T19:06:50.706Z,96617.94
2022-09-24T19:09:21.315Z,96623.31
2022-09-24T19:11:50.762Z,96623.31
2022-09-24T19:14:21.514Z,96617.03
2022-09-24T19:16:50.077Z,96613.94
2022-09-24T19:19:18.770Z,96608.81
2022-09-24T19:21:47.365Z,96614.63
2022-09-24T19:24:15.864Z,96617.38
2022-09-24T19:26:44.870Z,96604.00
2022-09-24T19:29:13.498Z,96599.00
2022-09-24T19:31:45.552Z,96604.72
2022-09-24T19:34:15.309Z,96604.38
2022-09-24T19:36:44.971Z,96611.00
2022-09-24T19:39:16.294Z,96605.06
2022-09-24T19:41:45.158Z,96603.47
2022-09-24T19:44:14.791Z,96613.28
2022-09-24T19:46:45.312Z,96608.25
2022-09-24T19:49:13.797Z,96607.69
2022-09-24T19:51:42.549Z,96614.78
2022-09-24T19:54:12.113Z,96611.00
2022-09-24T19:56:41.479Z,96614.44
2022-09-24T19:59:10.999Z,96614.44
2022-09-24T20:01:39.395Z,96611.69
2022-09-24T20:04:09.600Z,96605.41
2022-09-24T20:06:39.423Z,96614.09
2022-09-24T20:09:08.517Z,96610.22
2022-09-24T20:11:37.138Z,96611.78
2022-09-24T20:14:08.907Z,96611.00
2022-09-24T20:16:38.081Z,96611.00
2022-09-24T20:19:08.353Z,96609.28
2022-09-24T20:21:36.921Z,96605.75
2022-09-24T20:24:07.657Z,96603.81
2022-09-24T20:26:53.827Z,96604.59
2022-09-24T20:29:23.638Z,96601.41
2022-09-24T20:31:55.645Z,96597.06
2022-09-24T20:34:33.701Z,96598.22
2022-09-24T20:37:02.661Z,96599.69
2022-09-24T20:39:33.829Z,96600.50
2022-09-24T20:42:03.614Z,96607.56
2022-09-24T20:44:32.366Z,96598.13
2022-09-24T20:47:01.119Z,96598.78
2022-09-24T20:49:31.164Z,96601.88
2022-09-24T20:52:01.361Z,96605.50
2022-09-24T20:54:30.166Z,96605.50
2022-09-24T20:56:58.884Z,96606.00
2022-09-24T20:59:27.591Z,96602.19
2022-09-24T21:01:56.300Z,96600.63
2022-09-24T21:04:25.541Z,96604.81
2022-09-24T21:06:55.711Z,96595.72
2022-09-24T21:09:24.119Z,96601.19
2022-09-24T21:11:53.168Z,96602.66
2022-09-24T21:14:22.609Z,96596.41
2022-09-24T21:16:50.802Z,96597.97
2022-09-24T21:19:19.226Z,96606.19
2022-09-24T21:21:47.677Z,96606.78
2022-09-24T21:24:17.444Z,96603.69
2022-09-24T21:26:45.954Z,96607.22
2022-09-24T21:29:17.387Z,96602.91
2022-09-24T21:31:47.834Z,96606.66
2022-09-24T21:34:18.032Z,96598.78
2022-09-24T21:36:46.619Z,96597.06
2022-09-24T21:39:19.345Z,96597.66
2022-09-24T21:41:50.181Z,96594.81
2022-09-24T21:44:19.474Z,96594.31
2022-09-24T21:46:52.547Z,96599.34
2022-09-24T21:49:21.326Z,96594.22
2022-09-24T21:51:50.668Z,96597.75
2022-09-24T21:54:20.577Z,96591.47
2022-09-24T21:56:49.240Z,96591.38
2022-09-24T21:59:36.398Z,96596.41
2022-09-24T22:02:05.880Z,96591.03
2022-09-24T22:04:35.265Z,96595.72
2022-09-24T22:07:03.885Z,96591.03
2022-09-24T22:09:33.745Z,96598.44
2022-09-24T22:12:04.551Z,96594.09
2022-09-24T22:14:34.605Z,96594.66
2022-09-24T22:17:03.830Z,96592.75
2022-09-24T22:19:32.354Z,96587.28
2022-09-24T22:22:00.914Z,96587.59
2022-09-24T22:24:29.417Z,96583.25
2022-09-24T22:26:59.050Z,96588.63
2022-09-24T22:29:27.329Z,96590.91
2022-09-24T22:31:55.576Z,96587.59
2022-09-24T22:34:41.574Z,96587.94
2022-09-24T22:37:09.853Z,96581.66
2022-09-24T22:39:38.191Z,96590.22
2022-09-24T22:42:07.906Z,96590.22
2022-09-24T22:44:36.597Z,96585.09
2022-09-24T22:47:04.870Z,96589.53
2022-09-24T22:49:33.182Z,96584.63
2022-09-24T22:52:01.815Z,96588.50
2022-09-24T22:54:30.500Z,96580.50
2022-09-24T22:56:59.107Z,96580.84
2022-09-24T22:59:28.712Z,96582.78
2022-09-24T23:01:56.927Z,96588.59
2022-09-24T23:04:25.177Z,96585.97
2022-09-24T23:06:53.454Z,96591.22
2022-09-24T23:09:21.724Z,96590.56
2022-09-24T23:11:50.034Z,96587.81
2022-09-24T23:14:18.629Z,96588.59
2022-09-24T23:16:48.245Z,96587.59
2022-09-24T23:19:19.187Z,96584.16
2022-09-24T23:21:48.280Z,96584.50
2022-09-24T23:24:19.709Z,96587.34
2022-09-24T23:26:51.023Z,96580.63
2022-09-24T23:29:19.308Z,96578.91
2022-09-24T23:31:48.881Z,96580.63
2022-09-24T23:34:17.086Z,96583.38
2022-09-24T23:36:46.181Z,96575.84
2022-09-24T23:39:14.594Z,96578.13
2022-09-24T23:41:42.881Z,96574.13
2022-09-24T23:44:11.388Z,96577.19
2022-09-24T23:46:40.030Z,96578.00
2022-09-24T23:49:09.696Z,96580.63
2022-09-24T23:51:38.252Z,96576.41
2022-09-24T23:54:07.846Z,96573.34
2022-09-24T23:56:36.222Z,96569.66
2022-09-24T23:59:05.480Z,96566.47
